createdAt,value
2018-06-24T00:00:34.994Z,84.00
2018-06-24T00:03:04.412Z,84.75
2018-06-24T00:05:33.032Z,83.81
2018-06-24T00:10:29.946Z,84.73
2018-06-24T00:12:58.255Z,84.58
2018-06-24T00:15:26.633Z,85.31
2018-06-24T00:17:54.955Z,86.11
2018-06-24T00:20:23.323Z,86.12
2018-06-24T00:22:51.725Z,86.61
2018-06-24T00:25:20.055Z,87.09
2018-06-24T00:27:48.401Z,87.59
2018-06-24T00:30:16.758Z,88.86
2018-06-24T00:32:45.171Z,89.73
2018-06-24T00:35:13.524Z,91.07
2018-06-24T00:37:41.816Z,92.81
2018-06-24T00:40:10.187Z,93.59
2018-06-24T00:42:38.516Z,95.44
2018-06-24T00:45:06.880Z,96.11
2018-06-24T00:47:35.180Z,97.25
2018-06-24T00:50:03.541Z,98.17
2018-06-24T00:52:31.901Z,100.00
2018-06-24T00:55:00.339Z,100.00
2018-06-24T00:57:28.631Z,100.00
2018-06-24T01:00:08.278Z,100.00
2018-06-24T01:02:36.670Z,100.00
2018-06-24T01:05:04.979Z,100.00
2018-06-24T01:07:33.269Z,100.00
2018-06-24T01:10:01.576Z,100.00
2018-06-24T01:12:29.910Z,100.00
2018-06-24T01:14:58.385Z,100.00
2018-06-24T01:17:26.740Z,100.00
2018-06-24T01:19:56.388Z,100.00
2018-06-24T01:22:24.788Z,100.00
2018-06-24T01:24:53.825Z,100.00
2018-06-24T01:27:22.212Z,99.75
2018-06-24T01:29:50.726Z,97.72
2018-06-24T01:32:19.048Z,96.31
2018-06-24T01:34:47.417Z,94.28
2018-06-24T01:37:15.739Z,93.45
2018-06-24T01:39:44.199Z,92.37
2018-06-24T01:42:12.564Z,92.21
2018-06-24T01:44:40.909Z,92.29
2018-06-24T01:47:09.198Z,93.35
2018-06-24T01:49:37.580Z,93.05
2018-06-24T01:52:06.020Z,93.28
2018-06-24T01:54:34.497Z,94.74
2018-06-24T01:57:02.770Z,94.63
2018-06-24T01:59:31.126Z,95.69
2018-06-24T02:01:59.420Z,96.27
2018-06-24T02:04:27.780Z,97.92
2018-06-24T02:06:56.117Z,98.86
2018-06-24T02:09:24.490Z,100.00
2018-06-24T02:11:52.800Z,100.00
2018-06-24T02:14:21.046Z,100.00
2018-06-24T02:16:49.978Z,100.00
2018-06-24T02:19:18.254Z,100.00
2018-06-24T02:21:46.522Z,100.00
2018-06-24T02:24:14.882Z,100.00
2018-06-24T02:26:43.306Z,100.00
2018-06-24T02:29:11.598Z,100.00
2018-06-24T02:31:39.908Z,99.64
2018-06-24T02:34:08.171Z,98.55
2018-06-24T02:36:36.469Z,98.45
2018-06-24T02:39:07.734Z,97.42
2018-06-24T02:41:36.087Z,97.30
2018-06-24T02:44:04.489Z,96.68
2018-06-24T02:46:32.738Z,96.14
2018-06-24T02:49:01.023Z,95.53
2018-06-24T02:51:29.374Z,96.27
2018-06-24T02:53:57.699Z,96.32
2018-06-24T02:56:26.211Z,96.42
2018-06-24T02:58:54.553Z,96.75
2018-06-24T03:01:22.921Z,97.46
2018-06-24T03:03:51.235Z,97.65
2018-06-24T03:06:19.623Z,98.15
2018-06-24T03:08:48.124Z,98.69
2018-06-24T03:11:16.485Z,99.79
2018-06-24T03:13:44.854Z,100.00
2018-06-24T03:16:13.169Z,100.00
2018-06-24T03:18:41.504Z,100.00
2018-06-24T03:21:09.845Z,100.00
2018-06-24T03:23:38.119Z,100.00
2018-06-24T03:26:06.473Z,100.00
2018-06-24T03:28:34.803Z,100.00
2018-06-24T03:31:03.317Z,100.00
2018-06-24T03:33:32.520Z,100.00
2018-06-24T03:36:00.865Z,100.00
2018-06-24T03:38:29.448Z,99.52
2018-06-24T03:40:57.740Z,100.00
2018-06-24T03:43:26.053Z,100.00
2018-06-24T03:45:54.367Z,100.00
2018-06-24T03:48:22.963Z,100.00
2018-06-24T03:50:51.388Z,100.00
2018-06-24T03:53:19.726Z,99.80
2018-06-24T03:55:48.795Z,99.58
2018-06-24T03:58:17.116Z,99.73
2018-06-24T04:00:45.443Z,98.90
2018-06-24T04:03:13.832Z,99.23
2018-06-24T04:05:42.160Z,98.77
2018-06-24T04:08:10.437Z,98.76
2018-06-24T04:10:38.667Z,96.76
2018-06-24T04:13:07.018Z,96.97
2018-06-24T04:15:35.360Z,96.23
2018-06-24T04:18:03.748Z,96.22
2018-06-24T04:20:32.120Z,95.40
2018-06-24T04:23:00.412Z,94.09
2018-06-24T04:25:28.718Z,93.70
2018-06-24T04:27:57.074Z,93.42
2018-06-24T04:30:25.459Z,93.81
2018-06-24T04:32:53.747Z,93.27
2018-06-24T04:35:22.085Z,92.80
2018-06-24T04:37:50.454Z,92.56
2018-06-24T04:40:18.726Z,91.57
2018-06-24T04:42:47.043Z,91.19
2018-06-24T04:45:15.365Z,90.78
2018-06-24T04:47:43.677Z,90.77
2018-06-24T04:50:11.991Z,91.00
2018-06-24T04:52:40.328Z,90.84
2018-06-24T04:55:08.680Z,91.22
2018-06-24T04:57:37.047Z,90.55
2018-06-24T05:00:05.501Z,90.46
2018-06-24T05:02:33.830Z,89.73
2018-06-24T05:05:02.125Z,88.09
2018-06-24T05:07:30.479Z,86.90
2018-06-24T05:09:58.849Z,85.48
2018-06-24T05:12:27.709Z,87.46
2018-06-24T05:14:55.998Z,87.60
2018-06-24T05:17:24.311Z,85.05
2018-06-24T05:19:52.697Z,83.24
2018-06-24T05:22:21.032Z,82.58
2018-06-24T05:24:49.462Z,83.08
2018-06-24T05:27:17.781Z,81.35
2018-06-24T05:29:46.159Z,79.68
2018-06-24T05:32:14.581Z,81.29
2018-06-24T05:34:42.943Z,81.80
2018-06-24T05:37:11.235Z,80.24
2018-06-24T05:39:39.648Z,78.67
2018-06-24T05:42:08.094Z,78.66
2018-06-24T05:44:36.444Z,77.76
2018-06-24T05:47:04.703Z,75.29
2018-06-24T05:49:33.069Z,76.19
2018-06-24T05:52:01.382Z,76.79
2018-06-24T05:54:29.725Z,75.30
2018-06-24T05:56:58.105Z,76.16
2018-06-24T05:59:26.439Z,77.66
2018-06-24T06:01:54.798Z,76.26
2018-06-24T06:04:23.171Z,76.02
2018-06-24T06:06:51.507Z,77.36
2018-06-24T06:09:20.272Z,77.88
2018-06-24T06:11:48.639Z,77.28
2018-06-24T06:14:17.427Z,77.80
2018-06-24T06:16:45.741Z,77.50
2018-06-24T06:19:14.127Z,77.70
2018-06-24T06:21:42.470Z,76.32
2018-06-24T06:24:10.990Z,77.46
2018-06-24T06:26:39.465Z,76.56
2018-06-24T06:29:07.765Z,77.72
2018-06-24T06:31:36.566Z,78.01
2018-06-24T06:34:04.961Z,76.16
2018-06-24T06:36:33.304Z,76.82
2018-06-24T06:39:01.630Z,76.69
2018-06-24T06:41:29.977Z,78.20
2018-06-24T06:43:58.340Z,76.32
2018-06-24T06:46:26.612Z,74.73
2018-06-24T06:48:54.921Z,72.70
2018-06-24T06:51:24.344Z,69.85
2018-06-24T06:53:52.707Z,70.33
2018-06-24T06:56:21.273Z,70.32
2018-06-24T06:58:49.560Z,71.28
2018-06-24T07:01:18.036Z,68.99
2018-06-24T07:03:46.305Z,67.96
2018-06-24T07:06:14.922Z,66.33
2018-06-24T07:08:43.546Z,66.15
2018-06-24T07:11:11.959Z,67.64
2018-06-24T07:13:40.413Z,66.33
2018-06-24T07:16:08.839Z,65.11
2018-06-24T07:18:37.178Z,67.14
2018-06-24T07:21:05.590Z,66.34
2018-06-24T07:23:33.948Z,65.23
2018-06-24T07:26:02.564Z,63.87
2018-06-24T07:28:30.893Z,62.41
2018-06-24T07:30:59.249Z,60.32
2018-06-24T07:33:27.805Z,60.50
2018-06-24T07:35:56.027Z,59.76
2018-06-24T07:38:24.342Z,59.16
2018-06-24T07:40:52.693Z,59.13
2018-06-24T07:43:20.997Z,58.31
2018-06-24T07:45:49.478Z,59.20
2018-06-24T07:48:17.793Z,58.07
2018-06-24T07:50:46.120Z,58.02
2018-06-24T07:53:14.527Z,56.99
2018-06-24T07:55:42.925Z,57.12
2018-06-24T07:58:11.290Z,56.41
2018-06-24T08:00:39.749Z,57.74
2018-06-24T08:03:08.061Z,55.49
2018-06-24T08:05:36.461Z,56.06
2018-06-24T08:08:04.955Z,55.15
2018-06-24T08:10:33.242Z,54.29
2018-06-24T08:13:01.801Z,52.45
2018-06-24T08:15:30.089Z,52.10
2018-06-24T08:17:58.529Z,49.83
2018-06-24T08:20:27.002Z,50.12
2018-06-24T08:22:55.565Z,49.71
2018-06-24T08:25:24.057Z,49.83
2018-06-24T08:27:52.437Z,48.40
2018-06-24T08:30:20.861Z,46.08
2018-06-24T08:32:49.188Z,46.56
2018-06-24T08:35:17.538Z,45.60
2018-06-24T08:37:46.131Z,46.48
2018-06-24T08:40:14.565Z,45.81
2018-06-24T08:42:42.844Z,47.01
2018-06-24T08:45:11.421Z,46.80
2018-06-24T08:47:39.752Z,48.22
2018-06-24T08:50:08.232Z,49.20
2018-06-24T08:52:36.608Z,48.58
2018-06-24T08:55:04.987Z,48.62
2018-06-24T08:57:33.347Z,45.76
2018-06-24T09:00:01.761Z,44.99
2018-06-24T09:02:30.115Z,44.34
2018-06-24T09:04:58.584Z,42.84
2018-06-24T09:07:27.018Z,42.12
2018-06-24T09:09:55.394Z,41.18
2018-06-24T09:12:23.730Z,38.65
2018-06-24T09:17:45.081Z,36.74
2018-06-24T09:20:13.505Z,36.75
2018-06-24T09:22:41.841Z,34.49
2018-06-24T09:25:10.225Z,32.72
2018-06-24T09:27:38.748Z,32.63
2018-06-24T09:30:07.254Z,34.54
2018-06-24T09:32:35.702Z,33.05
2018-06-24T09:35:04.144Z,31.20
2018-06-24T09:37:32.620Z,31.66
2018-06-24T09:40:01.194Z,30.49
2018-06-24T09:42:29.601Z,32.46
2018-06-24T09:44:57.936Z,31.73
2018-06-24T09:47:26.330Z,31.44
2018-06-24T09:49:54.687Z,30.98
2018-06-24T09:52:23.055Z,30.81
2018-06-24T09:54:51.527Z,30.12
2018-06-24T09:57:20.018Z,30.97
2018-06-24T09:59:48.441Z,32.21
2018-06-24T10:02:16.756Z,32.57
2018-06-24T10:04:46.821Z,31.16
2018-06-24T10:07:15.226Z,31.58
2018-06-24T10:09:43.621Z,31.92
2018-06-24T10:12:11.969Z,32.14
2018-06-24T10:14:40.420Z,33.02
2018-06-24T10:17:08.878Z,32.27
2018-06-24T10:19:37.204Z,32.91
2018-06-24T10:22:05.470Z,30.32
2018-06-24T10:24:34.209Z,34.73
2018-06-24T10:27:02.522Z,31.25
2018-06-24T10:29:30.846Z,32.09
2018-06-24T10:31:59.082Z,30.52
2018-06-24T10:34:27.436Z,30.59
2018-06-24T10:36:55.879Z,30.88
2018-06-24T10:39:24.211Z,30.50
2018-06-24T10:41:52.609Z,32.49
2018-06-24T10:44:21.072Z,33.50
2018-06-24T10:46:49.482Z,33.65
2018-06-24T10:49:17.865Z,34.68
2018-06-24T10:51:47.051Z,31.53
2018-06-24T10:54:15.340Z,32.14
2018-06-24T10:56:43.985Z,31.05
2018-06-24T10:59:12.417Z,30.91
2018-06-24T11:01:41.037Z,29.12
2018-06-24T11:04:09.626Z,27.98
2018-06-24T11:06:38.029Z,30.09
2018-06-24T11:09:08.839Z,30.12
2018-06-24T11:11:37.536Z,32.00
2018-06-24T11:14:07.220Z,33.59
2018-06-24T11:16:36.237Z,33.40
2018-06-24T11:19:04.557Z,34.77
2018-06-24T11:21:32.887Z,32.44
2018-06-24T11:24:01.300Z,32.29
2018-06-24T11:26:31.487Z,32.60
2018-06-24T11:29:00.020Z,33.23
2018-06-24T11:31:28.365Z,32.44
2018-06-24T11:33:56.663Z,30.16
2018-06-24T11:36:24.983Z,31.17
2018-06-24T11:38:53.335Z,30.22
2018-06-24T11:41:21.643Z,30.26
2018-06-24T11:43:49.960Z,31.50
2018-06-24T11:46:18.341Z,33.23
2018-06-24T11:48:46.675Z,32.45
2018-06-24T11:51:15.717Z,30.98
2018-06-24T11:53:44.203Z,32.56
2018-06-24T11:56:12.553Z,31.22
2018-06-24T11:58:41.003Z,33.51
2018-06-24T12:01:09.593Z,32.62
2018-06-24T12:03:37.979Z,30.49
2018-06-24T12:06:06.272Z,29.60
2018-06-24T12:08:34.561Z,30.32
2018-06-24T12:11:02.998Z,30.05
2018-06-24T12:13:31.353Z,31.36
2018-06-24T12:15:59.682Z,29.97
2018-06-24T12:18:27.940Z,29.36
2018-06-24T12:20:56.369Z,27.44
2018-06-24T12:23:26.409Z,27.62
2018-06-24T12:25:54.810Z,28.21
2018-06-24T12:28:23.227Z,29.16
2018-06-24T12:30:52.020Z,30.95
2018-06-24T12:33:20.414Z,31.18
2018-06-24T12:35:48.673Z,28.88
2018-06-24T12:38:17.001Z,29.40
2018-06-24T12:40:45.359Z,30.14
2018-06-24T12:43:13.720Z,29.66
2018-06-24T12:45:42.075Z,29.62
2018-06-24T12:48:10.602Z,30.77
2018-06-24T12:50:39.009Z,30.77
2018-06-24T12:53:07.353Z,30.84
2018-06-24T12:55:35.745Z,32.96
2018-06-24T12:58:04.064Z,29.96
2018-06-24T13:00:32.903Z,29.83
2018-06-24T13:03:00.704Z,30.93
2018-06-24T13:05:29.199Z,29.24
2018-06-24T13:07:57.489Z,29.30
2018-06-24T13:10:25.860Z,29.89
2018-06-24T13:12:54.174Z,29.94
2018-06-24T13:15:22.570Z,29.81
2018-06-24T13:17:50.975Z,28.64
2018-06-24T13:20:19.267Z,28.21
2018-06-24T13:22:47.636Z,27.39
2018-06-24T13:25:15.975Z,22.88
2018-06-24T13:27:44.300Z,24.10
2018-06-24T13:30:12.791Z,23.99
2018-06-24T13:32:41.296Z,25.47
2018-06-24T13:35:09.656Z,22.95
2018-06-24T13:37:37.987Z,21.81
2018-06-24T13:40:06.866Z,18.67
2018-06-24T13:42:35.255Z,16.99
2018-06-24T13:45:04.433Z,17.02
2018-06-24T13:47:32.761Z,15.34
2018-06-24T13:50:01.081Z,13.85
2018-06-24T13:52:29.991Z,14.49
2018-06-24T13:54:58.302Z,14.02
2018-06-24T13:57:26.593Z,14.79
2018-06-24T13:59:54.888Z,15.02
2018-06-24T14:02:23.172Z,15.09
2018-06-24T14:04:51.512Z,15.07
2018-06-24T14:07:19.888Z,17.74
2018-06-24T14:09:48.868Z,20.06
2018-06-24T14:12:17.222Z,21.63
2018-06-24T14:14:45.501Z,23.95
2018-06-24T14:17:13.890Z,25.58
2018-06-24T14:19:42.246Z,26.30
2018-06-24T14:22:10.971Z,27.01
2018-06-24T14:24:39.296Z,27.30
2018-06-24T14:27:07.636Z,28.86
2018-06-24T14:29:35.927Z,27.41
2018-06-24T14:32:04.343Z,29.01
2018-06-24T14:34:32.745Z,30.09
2018-06-24T14:37:01.099Z,30.61
2018-06-24T14:39:29.525Z,31.79
2018-06-24T14:41:57.992Z,31.03
2018-06-24T14:44:26.339Z,28.94
2018-06-24T14:46:54.701Z,32.08
2018-06-24T14:49:23.072Z,31.86
2018-06-24T14:51:51.631Z,32.78
2018-06-24T14:54:19.977Z,32.42
2018-06-24T14:56:48.458Z,34.20
2018-06-24T14:59:16.871Z,32.59
2018-06-24T15:01:45.215Z,32.24
2018-06-24T15:04:13.440Z,30.93
2018-06-24T15:06:41.797Z,32.46
2018-06-24T15:09:11.816Z,32.62
2018-06-24T15:11:40.180Z,31.48
2018-06-24T15:14:08.885Z,30.40
2018-06-24T15:16:37.586Z,29.23
2018-06-24T15:19:06.489Z,30.03
2018-06-24T15:21:34.862Z,30.77
2018-06-24T15:24:03.158Z,30.42
2018-06-24T15:26:31.488Z,29.21
2018-06-24T15:28:59.902Z,28.10
2018-06-24T15:31:28.240Z,28.22
2018-06-24T15:33:56.568Z,27.18
2018-06-24T15:36:24.866Z,27.52
2018-06-24T15:38:53.194Z,26.54
2018-06-24T15:41:21.553Z,27.27
2018-06-24T15:43:50.684Z,25.75
2018-06-24T15:46:19.224Z,27.45
2018-06-24T15:48:47.690Z,28.36
2018-06-24T15:51:17.821Z,28.48
2018-06-24T15:53:46.269Z,28.78
2018-06-24T15:56:15.210Z,28.76
2018-06-24T15:58:43.633Z,26.85
2018-06-24T16:01:11.955Z,27.74
2018-06-24T16:03:40.278Z,28.40
2018-06-24T16:06:08.637Z,24.97
2018-06-24T16:08:36.938Z,25.81
2018-06-24T16:11:05.243Z,29.02
2018-06-24T16:13:33.831Z,30.58
2018-06-24T16:16:02.277Z,31.93
2018-06-24T16:18:31.238Z,32.88
2018-06-24T16:20:59.646Z,33.87
2018-06-24T16:23:28.092Z,35.11
2018-06-24T16:25:57.311Z,34.10
2018-06-24T16:28:25.746Z,34.58
2018-06-24T16:30:54.110Z,32.37
2018-06-24T16:33:22.425Z,32.38
2018-06-24T16:35:50.769Z,30.36
2018-06-24T16:38:19.149Z,31.17
2018-06-24T16:40:47.834Z,28.99
2018-06-24T16:43:16.417Z,30.06
2018-06-24T16:45:44.975Z,30.59
2018-06-24T16:48:13.554Z,31.80
2018-06-24T16:50:41.925Z,32.33
2018-06-24T16:53:10.388Z,31.06
2018-06-24T16:55:38.833Z,32.46
2018-06-24T16:58:07.202Z,33.33
2018-06-24T17:00:36.424Z,35.11
2018-06-24T17:03:05.273Z,36.57
2018-06-24T17:05:33.577Z,38.17
2018-06-24T17:08:02.045Z,38.79
2018-06-24T17:10:30.672Z,39.11
2018-06-24T17:12:59.077Z,40.46
2018-06-24T17:15:27.521Z,41.82
2018-06-24T17:17:55.968Z,42.05
2018-06-24T17:20:24.577Z,42.87
2018-06-24T17:22:53.082Z,42.59
2018-06-24T17:25:21.519Z,43.30
2018-06-24T17:27:49.868Z,43.50
2018-06-24T17:30:18.191Z,42.65
2018-06-24T17:32:46.488Z,42.78
2018-06-24T17:35:14.818Z,43.13
2018-06-24T17:37:43.216Z,41.69
2018-06-24T17:40:11.561Z,42.40
2018-06-24T17:42:39.871Z,41.85
2018-06-24T17:45:08.182Z,40.05
2018-06-24T17:47:36.585Z,39.61
2018-06-24T17:50:04.986Z,38.55
2018-06-24T17:52:33.324Z,40.16
2018-06-24T17:55:01.690Z,40.23
2018-06-24T17:57:30.233Z,39.66
2018-06-24T17:59:58.721Z,41.50
2018-06-24T18:02:27.405Z,41.75
2018-06-24T18:04:55.748Z,42.38
2018-06-24T18:07:24.065Z,43.04
2018-06-24T18:09:57.461Z,43.46
2018-06-24T18:12:25.884Z,44.70
2018-06-24T18:14:54.202Z,44.27
2018-06-24T18:17:22.581Z,44.10
2018-06-24T18:19:51.008Z,44.41
2018-06-24T18:22:19.377Z,45.95
2018-06-24T18:24:47.724Z,44.24
2018-06-24T18:27:16.097Z,44.59
2018-06-24T18:29:44.466Z,45.21
2018-06-24T18:32:12.906Z,45.79
2018-06-24T18:34:41.170Z,46.19
2018-06-24T18:37:09.527Z,47.20
2018-06-24T18:39:37.943Z,46.79
2018-06-24T18:42:06.324Z,47.06
2018-06-24T18:44:34.661Z,47.33
2018-06-24T18:47:03.695Z,47.30
2018-06-24T18:49:32.024Z,47.79
2018-06-24T18:52:00.464Z,47.52
2018-06-24T18:54:28.780Z,47.55
2018-06-24T18:56:57.076Z,49.34
2018-06-24T18:59:25.464Z,48.60
2018-06-24T19:01:54.617Z,51.27
2018-06-24T19:04:23.502Z,48.35
2018-06-24T19:06:51.855Z,48.95
2018-06-24T19:09:20.107Z,50.18
2018-06-24T19:11:48.434Z,49.81
2018-06-24T19:14:16.704Z,50.14
2018-06-24T19:16:44.992Z,51.44
2018-06-24T19:19:13.401Z,49.73
2018-06-24T19:21:41.736Z,50.48
2018-06-24T19:24:10.058Z,52.28
2018-06-24T19:26:38.308Z,52.09
2018-06-24T19:29:06.576Z,54.66
2018-06-24T19:31:34.882Z,51.85
2018-06-24T19:34:03.222Z,53.40
2018-06-24T19:36:31.728Z,53.03
2018-06-24T19:39:00.103Z,52.71
2018-06-24T19:41:28.442Z,54.00
2018-06-24T19:43:56.879Z,53.48
2018-06-24T19:46:25.143Z,53.12
2018-06-24T19:48:53.881Z,54.61
2018-06-24T19:51:22.203Z,54.25
2018-06-24T19:53:50.745Z,55.11
2018-06-24T19:56:19.240Z,54.68
2018-06-24T19:58:47.590Z,53.42
2018-06-24T20:01:15.895Z,55.38
2018-06-24T20:03:44.446Z,54.54
2018-06-24T20:06:12.988Z,54.11
2018-06-24T20:08:41.295Z,54.50
2018-06-24T20:11:09.701Z,56.16
2018-06-24T20:13:38.093Z,53.87
2018-06-24T20:16:29.914Z,53.45
2018-06-24T20:18:58.271Z,53.62
2018-06-24T20:21:26.653Z,53.86
2018-06-24T20:23:55.006Z,54.70
2018-06-24T20:26:23.333Z,54.88
2018-06-24T20:28:51.863Z,56.40
2018-06-24T20:31:20.249Z,57.12
2018-06-24T20:33:48.586Z,55.73
2018-06-24T20:36:16.941Z,56.48
2018-06-24T20:38:45.321Z,56.35
2018-06-24T20:41:13.631Z,57.10
2018-06-24T20:44:13.943Z,58.26
2018-06-24T20:46:43.702Z,56.52
2018-06-24T20:49:12.088Z,57.71
2018-06-24T20:51:40.453Z,57.32
2018-06-24T20:54:09.349Z,56.80
2018-06-24T20:56:38.088Z,57.26
2018-06-24T20:59:06.369Z,57.71
2018-06-24T21:01:34.679Z,58.14
2018-06-24T21:04:03.017Z,57.44
2018-06-24T21:06:31.393Z,57.76
2018-06-24T21:08:59.750Z,58.03
2018-06-24T21:11:28.176Z,58.03
2018-06-24T21:13:56.495Z,58.75
2018-06-24T21:16:24.929Z,58.99
2018-06-24T21:18:53.343Z,60.96
2018-06-24T21:21:21.690Z,60.34
2018-06-24T21:23:49.988Z,65.85
2018-06-24T21:26:18.353Z,62.40
2018-06-24T21:28:46.717Z,62.65
2018-06-24T21:31:15.347Z,62.18
2018-06-24T21:33:43.797Z,61.51
2018-06-24T21:36:12.133Z,65.00
2018-06-24T21:38:40.492Z,61.98
2018-06-24T21:41:08.798Z,62.33
2018-06-24T21:43:37.115Z,61.93
2018-06-24T21:46:05.899Z,63.21
2018-06-24T21:48:34.581Z,60.41
2018-06-24T21:51:02.909Z,60.55
2018-06-24T21:53:31.331Z,59.98
2018-06-24T21:55:59.623Z,61.32
2018-06-24T21:58:28.087Z,60.60
2018-06-24T22:00:56.501Z,59.93
2018-06-24T22:03:24.833Z,61.07
2018-06-24T22:05:53.238Z,60.34
2018-06-24T22:08:21.611Z,62.09
2018-06-24T22:10:50.150Z,60.08
2018-06-24T22:13:18.640Z,63.30
2018-06-24T22:15:47.317Z,61.93
2018-06-24T22:18:15.675Z,61.38
2018-06-24T22:20:44.015Z,59.74
2018-06-24T22:23:12.327Z,60.25
2018-06-24T22:25:40.622Z,60.38
2018-06-24T22:28:08.960Z,61.34
2018-06-24T22:30:37.561Z,61.19
2018-06-24T22:33:05.896Z,61.58
2018-06-24T22:35:34.199Z,63.78
2018-06-24T22:38:02.473Z,64.29
2018-06-24T22:40:30.928Z,63.76
2018-06-24T22:42:59.384Z,63.92
2018-06-24T22:45:27.679Z,65.30
2018-06-24T22:47:58.812Z,67.00
2018-06-24T22:50:27.332Z,65.20
2018-06-24T22:52:55.823Z,66.02
2018-06-24T22:55:24.296Z,64.98
2018-06-24T22:57:52.744Z,66.37
2018-06-24T23:00:23.573Z,64.01
2018-06-24T23:02:52.373Z,63.70
2018-06-24T23:05:20.851Z,66.17
2018-06-24T23:07:49.358Z,64.90
2018-06-24T23:10:17.674Z,63.90
2018-06-24T23:12:46.260Z,64.78
2018-06-24T23:15:15.052Z,63.58
2018-06-24T23:17:43.947Z,67.04
2018-06-24T23:20:12.633Z,64.25
2018-06-24T23:22:40.964Z,64.67
2018-06-24T23:25:09.770Z,64.99
2018-06-24T23:27:38.497Z,66.19
2018-06-24T23:30:07.513Z,65.53
2018-06-24T23:32:35.924Z,67.17
2018-06-24T23:35:04.820Z,68.00
2018-06-24T23:37:33.579Z,67.53
2018-06-24T23:40:02.022Z,66.12
2018-06-24T23:42:30.371Z,67.57
2018-06-24T23:44:58.853Z,68.29
2018-06-24T23:47:27.358Z,66.93
2018-06-24T23:49:55.965Z,67.03
2018-06-24T23:52:24.292Z,65.99
2018-06-24T23:54:52.584Z,68.49
2018-06-24T23:57:20.906Z,66.34
2018-06-24T23:59:49.218Z,68.78
